Rechercher aéroport 
image banner adimage banner adimage banner ad
image banner ad

CN10 - Mono County Medical

Situé à Bridgeport, United States

ICAO - CN10, IATA -

Données fournies par Airmate  

Information générale

Coordonnées: N38°15'8" W119°13'49"
Élévation : 6450 feet MSL.
Variation magnétique : 16° East
Voir autres Aéroports à California

Données opérationnelles

Special qualification required
Heure actuelle UTC:
Heure actuelle locale:
Météo à : KHTH - Hawthorne Industrial ( 61 km )
METAR: KHTH 210135Z AUTO 32007KT 10SM CLR 21/M07 A3024 RMK A01
Voir NOTAMs / SUP AIP / TFR affectant cet aéroport [VIEW]
Fréquences de communication: [VIEW]

Pistes:

Coordonnées de l'aéroport

Adresse: Bridgeport United States

Vue satellite de CN10